createdAt,value
2022-09-28T00:02:17.728Z,8.22
2022-09-28T00:04:45.367Z,8.19
2022-09-28T00:07:12.717Z,8.19
2022-09-28T00:09:40.169Z,8.18
2022-09-28T00:12:07.540Z,8.12
2022-09-28T00:14:34.665Z,8.12
2022-09-28T00:17:02.065Z,8.14
2022-09-28T00:19:29.854Z,8.14
2022-09-28T00:21:57.374Z,8.11
2022-09-28T00:24:27.710Z,8.10
2022-09-28T00:26:56.055Z,8.16
2022-09-28T00:29:27.618Z,8.21
2022-09-28T00:32:00.349Z,8.17
2022-09-28T00:34:27.996Z,8.16
2022-09-28T00:36:55.216Z,8.15
2022-09-28T00:39:22.811Z,8.15
2022-09-28T00:41:50.599Z,8.19
2022-09-28T00:44:27.897Z,8.17
2022-09-28T00:47:01.217Z,8.10
2022-09-28T00:49:51.417Z,8.02
2022-09-28T00:52:26.819Z,7.91
2022-09-28T00:54:55.728Z,7.84
2022-09-28T00:57:24.234Z,7.83
2022-09-28T00:59:52.418Z,7.83
2022-09-28T01:02:20.426Z,7.77
2022-09-28T01:04:48.472Z,7.81
2022-09-28T01:07:16.502Z,7.84
2022-09-28T01:09:46.165Z,7.85
2022-09-28T01:12:14.210Z,7.89
2022-09-28T01:14:41.614Z,7.94
2022-09-28T01:17:24.659Z,7.98
2022-09-28T01:20:07.318Z,7.92
2022-09-28T01:22:59.348Z,7.87
2022-09-28T01:25:45.265Z,7.87
2022-09-28T01:28:24.089Z,7.92
2022-09-28T01:30:56.774Z,7.98
2022-09-28T01:33:26.731Z,7.97
2022-09-28T01:36:06.940Z,7.97
2022-09-28T01:38:46.609Z,7.93
2022-09-28T01:41:17.700Z,7.92
2022-09-28T01:43:52.732Z,7.93
2022-09-28T01:46:22.033Z,7.97
2022-09-28T01:48:55.604Z,7.98
2022-09-28T01:51:32.471Z,7.95
2022-09-28T01:54:09.804Z,7.93
2022-09-28T01:56:40.411Z,7.97
2022-09-28T01:59:13.417Z,7.97
2022-09-28T02:01:44.374Z,7.97
2022-09-28T02:04:11.808Z,7.97
2022-09-28T02:06:47.330Z,7.93
2022-09-28T02:09:21.323Z,7.99
2022-09-28T02:11:52.016Z,7.96
2022-09-28T02:14:19.987Z,7.92
2022-09-28T02:16:50.857Z,7.95
2022-09-28T02:19:26.848Z,7.99
2022-09-28T02:21:58.106Z,8.02
2022-09-28T02:24:29.184Z,8.10
2022-09-28T02:27:00.553Z,8.15
2022-09-28T02:29:33.512Z,8.16
2022-09-28T02:32:01.344Z,8.15
2022-09-28T02:34:28.624Z,8.06
2022-09-28T02:36:56.318Z,8.05
2022-09-28T02:39:23.916Z,8.00
2022-09-28T02:42:01.138Z,7.94
2022-09-28T02:44:48.856Z,7.90
2022-09-28T02:47:22.834Z,7.88
2022-09-28T02:50:03.383Z,7.91
2022-09-28T02:52:36.143Z,7.90
2022-09-28T02:55:22.347Z,7.87
2022-09-28T02:57:52.925Z,7.89
2022-09-28T03:00:23.070Z,7.97
2022-09-28T03:02:59.805Z,7.99
2022-09-28T03:05:34.809Z,7.97
2022-09-28T03:08:25.728Z,8.01
2022-09-28T03:10:53.223Z,8.05
2022-09-28T03:13:20.745Z,8.02
2022-09-28T03:15:49.194Z,7.98
2022-09-28T03:18:17.932Z,7.97
2022-09-28T03:20:45.191Z,8.00
2022-09-28T03:23:24.814Z,8.06
2022-09-28T03:25:53.117Z,8.12
2022-09-28T03:28:21.915Z,8.13
2022-09-28T03:30:49.843Z,8.16
2022-09-28T03:33:17.125Z,8.19
2022-09-28T03:35:46.951Z,8.22
2022-09-28T03:38:15.128Z,8.18
2022-09-28T03:40:43.415Z,8.22
2022-09-28T03:43:10.786Z,8.27
2022-09-28T03:45:38.253Z,8.27
2022-09-28T03:48:05.640Z,8.27
2022-09-28T03:50:34.491Z,8.31
2022-09-28T03:53:02.585Z,8.35
2022-09-28T03:55:29.965Z,8.33
2022-09-28T03:57:57.880Z,8.31
2022-09-28T04:00:25.570Z,8.31
2022-09-28T04:02:53.862Z,8.38
2022-09-28T04:05:21.781Z,8.40
2022-09-28T04:07:49.241Z,8.38
2022-09-28T04:10:16.655Z,8.42
2022-09-28T04:12:45.114Z,8.50
2022-09-28T04:15:12.931Z,8.49
2022-09-28T04:17:43.102Z,8.46
2022-09-28T04:20:22.965Z,8.51
2022-09-28T04:23:01.336Z,8.54
2022-09-28T04:25:29.666Z,8.53
2022-09-28T04:28:15.851Z,8.53
2022-09-28T04:30:43.622Z,8.60
2022-09-28T04:33:11.473Z,8.64
2022-09-28T04:35:39.479Z,8.66
2022-09-28T04:38:07.050Z,8.66
2022-09-28T04:40:34.615Z,8.65
2022-09-28T04:43:02.534Z,8.70
2022-09-28T04:45:30.065Z,8.69
2022-09-28T04:48:06.320Z,8.64
2022-09-28T04:51:01.147Z,8.69
2022-09-28T04:53:28.963Z,8.77
2022-09-28T04:56:00.852Z,8.81
2022-09-28T04:58:29.322Z,8.88
2022-09-28T05:01:00.866Z,8.95
2022-09-28T05:03:47.227Z,8.99
2022-09-28T05:06:28.811Z,8.96
2022-09-28T05:09:02.109Z,8.95
2022-09-28T05:11:29.265Z,8.96
2022-09-28T05:13:56.847Z,8.96
2022-09-28T05:16:26.510Z,8.97
2022-09-28T05:19:12.919Z,8.94
2022-09-28T05:21:44.415Z,8.45
2022-09-28T05:24:11.998Z,8.83
2022-09-28T05:26:40.479Z,8.90
2022-09-28T05:29:10.603Z,8.92
2022-09-28T05:31:40.618Z,8.91
2022-09-28T05:34:40.365Z,8.49
2022-09-28T05:37:09.214Z,8.96
2022-09-28T05:39:36.238Z,9.06
2022-09-28T05:42:03.828Z,9.13
2022-09-28T05:44:31.396Z,9.18
2022-09-28T05:46:58.626Z,9.11
2022-09-28T05:49:29.397Z,9.09
2022-09-28T05:51:57.257Z,9.08
2022-09-28T05:54:25.317Z,9.13
2022-09-28T05:56:53.113Z,9.17
2022-09-28T05:59:20.269Z,9.21
2022-09-28T06:01:47.517Z,9.26
2022-09-28T06:04:16.442Z,9.37
2022-09-28T06:06:45.248Z,9.47
2022-09-28T06:09:12.750Z,9.47
2022-09-28T06:12:09.114Z,9.46
2022-09-28T06:14:44.971Z,9.42
2022-09-28T06:17:12.877Z,9.37
2022-09-28T06:19:40.370Z,9.52
2022-09-28T06:22:17.405Z,9.69
2022-09-28T06:24:52.433Z,9.84
2022-09-28T06:27:19.954Z,9.92
2022-09-28T06:29:47.210Z,9.99
2022-09-28T06:32:14.659Z,10.07
2022-09-28T06:34:44.083Z,10.15
2022-09-28T06:37:11.425Z,10.22
2022-09-28T06:39:39.559Z,10.27
2022-09-28T06:42:07.043Z,10.33
2022-09-28T06:44:53.285Z,10.38
2022-09-28T06:47:53.678Z,10.41
2022-09-28T06:50:27.905Z,10.19
2022-09-28T06:53:12.299Z,10.22
2022-09-28T06:55:51.841Z,10.33
2022-09-28T06:58:20.356Z,10.36
2022-09-28T07:00:48.978Z,10.38
2022-09-28T07:03:20.282Z,10.40
2022-09-28T07:06:20.910Z,10.41
2022-09-28T07:09:29.260Z,10.44
2022-09-28T07:12:29.102Z,10.51
2022-09-28T07:15:06.495Z,10.54
2022-09-28T07:17:42.791Z,10.54
2022-09-28T07:20:19.220Z,10.59
2022-09-28T07:22:52.840Z,10.64
2022-09-28T07:25:22.123Z,10.74
2022-09-28T07:28:27.674Z,10.80
2022-09-28T07:31:30.248Z,10.76
2022-09-28T07:34:08.383Z,10.83
2022-09-28T07:36:57.551Z,10.96
2022-09-28T07:39:25.266Z,11.03
2022-09-28T07:41:56.725Z,11.12
2022-09-28T07:44:28.394Z,11.17
2022-09-28T07:46:56.876Z,11.23
2022-09-28T07:49:33.115Z,11.30
2022-09-28T07:52:15.409Z,11.43
2022-09-28T07:55:06.659Z,11.47
2022-09-28T07:57:59.780Z,11.43
2022-09-28T08:01:07.173Z,11.39
2022-09-28T08:03:35.505Z,11.44
2022-09-28T08:06:04.842Z,11.57
2022-09-28T08:08:33.492Z,11.68
2022-09-28T08:11:00.741Z,11.72
2022-09-28T08:13:47.081Z,11.76
2022-09-28T08:16:33.221Z,11.82
2022-09-28T08:19:10.992Z,11.85
2022-09-28T08:21:47.130Z,11.81
2022-09-28T08:24:15.815Z,11.84
2022-09-28T08:26:44.129Z,11.85
2022-09-28T08:29:12.969Z,11.87
2022-09-28T08:32:03.745Z,11.88
2022-09-28T08:34:34.057Z,11.94
2022-09-28T08:37:16.538Z,11.94
2022-09-28T08:39:43.854Z,12.02
2022-09-28T08:42:37.113Z,12.17
2022-09-28T08:45:31.730Z,12.29
2022-09-28T08:48:56.947Z,12.47
2022-09-28T08:51:51.424Z,12.63
2022-09-28T08:54:52.234Z,12.76
2022-09-28T08:57:45.391Z,12.86
2022-09-28T09:00:19.883Z,13.01
2022-09-28T09:02:48.127Z,13.08
2022-09-28T09:05:23.632Z,13.03
2022-09-28T09:08:16.873Z,12.96
2022-09-28T09:10:45.488Z,12.90
2022-09-28T09:13:33.829Z,12.85
2022-09-28T09:16:23.744Z,12.83
2022-09-28T09:19:14.764Z,12.74
2022-09-28T09:22:17.010Z,12.57
2022-09-28T09:24:47.605Z,12.41
2022-09-28T09:27:24.473Z,12.38
2022-09-28T09:30:11.043Z,12.41
2022-09-28T09:32:49.430Z,12.46
2022-09-28T09:35:22.485Z,12.46
2022-09-28T09:38:19.814Z,12.38
2022-09-28T09:41:01.325Z,12.34
2022-09-28T09:44:19.569Z,12.33
2022-09-28T09:47:09.423Z,12.33
2022-09-28T09:49:55.858Z,12.35
2022-09-28T09:52:27.083Z,12.37
2022-09-28T09:55:04.108Z,12.41
2022-09-28T09:57:54.441Z,12.44
2022-09-28T10:00:35.447Z,12.47
2022-09-28T10:03:22.290Z,12.46
2022-09-28T10:05:58.345Z,12.50
2022-09-28T10:08:27.306Z,12.50
2022-09-28T10:11:02.979Z,12.46
2022-09-28T10:13:32.368Z,12.41
2022-09-28T10:16:03.099Z,12.35
2022-09-28T10:18:36.832Z,12.31
2022-09-28T10:21:38.731Z,12.31
2022-09-28T10:24:34.846Z,12.28
2022-09-28T10:27:28.758Z,12.28
2022-09-28T10:29:58.536Z,12.28
2022-09-28T10:32:27.570Z,12.33
2022-09-28T10:35:12.124Z,12.38
2022-09-28T10:37:59.460Z,12.36
2022-09-28T10:41:00.078Z,12.39
2022-09-28T10:44:06.755Z,12.37
2022-09-28T10:47:08.404Z,12.41
2022-09-28T10:49:47.002Z,12.48
2022-09-28T10:52:32.152Z,12.54
2022-09-28T10:55:00.206Z,12.58
2022-09-28T10:57:29.271Z,12.60
2022-09-28T11:00:03.305Z,12.60
2022-09-28T11:02:41.050Z,12.65
2022-09-28T11:05:22.237Z,12.76
2022-09-28T11:07:52.535Z,12.89
2022-09-28T11:10:26.879Z,13.07
2022-09-28T11:12:58.338Z,13.16
2022-09-28T11:15:32.438Z,13.27
2022-09-28T11:18:23.160Z,13.40
2022-09-28T11:20:50.657Z,13.54
2022-09-28T11:23:20.716Z,13.67
2022-09-28T11:26:18.935Z,13.82
2022-09-28T11:28:50.937Z,13.97
2022-09-28T11:31:26.407Z,14.06
2022-09-28T11:34:15.431Z,14.14
2022-09-28T11:37:12.975Z,14.20
2022-09-28T11:39:45.500Z,14.19
2022-09-28T11:42:16.762Z,14.19
2022-09-28T11:44:46.732Z,14.16
2022-09-28T11:47:33.001Z,14.13
2022-09-28T11:50:07.067Z,14.15
2022-09-28T11:52:44.123Z,14.05
2022-09-28T11:55:19.389Z,13.94
2022-09-28T11:57:49.287Z,13.85
2022-09-28T12:00:19.839Z,13.84
2022-09-28T12:02:51.181Z,13.81
2022-09-28T12:05:28.186Z,13.72
2022-09-28T12:08:09.106Z,13.55
2022-09-28T12:10:58.350Z,13.39
2022-09-28T12:13:48.277Z,13.28
2022-09-28T12:19:17.094Z,13.16
2022-09-28T12:21:47.470Z,13.10
2022-09-28T12:24:20.832Z,13.08
2022-09-28T12:26:57.144Z,13.01
2022-09-28T12:29:30.097Z,12.67
2022-09-28T12:32:01.970Z,13.16
2022-09-28T12:34:29.196Z,13.20
2022-09-28T12:36:56.483Z,13.22
2022-09-28T12:39:53.504Z,13.23
2022-09-28T12:42:20.718Z,13.24
2022-09-28T12:44:59.267Z,13.27
2022-09-28T12:47:38.885Z,13.32
2022-09-28T12:53:15.403Z,13.32
2022-09-28T12:56:00.860Z,13.22
2022-09-28T12:58:28.023Z,13.11
2022-09-28T13:01:14.196Z,13.01
2022-09-28T13:03:54.143Z,12.92
2022-09-28T13:06:47.398Z,12.88
2022-09-28T13:09:15.186Z,12.82
2022-09-28T13:12:01.045Z,12.78
2022-09-28T13:14:28.741Z,12.71
2022-09-28T13:17:09.505Z,12.65
2022-09-28T13:19:44.946Z,12.60
2022-09-28T13:22:12.976Z,12.59
2022-09-28T13:24:44.748Z,12.63
2022-09-28T13:27:23.094Z,12.66
2022-09-28T13:29:51.328Z,12.71
2022-09-28T13:32:18.769Z,12.71
2022-09-28T13:34:49.025Z,12.74
2022-09-28T13:37:25.341Z,12.76
2022-09-28T13:39:53.019Z,12.79
2022-09-28T13:42:25.358Z,12.82
2022-09-28T13:44:54.829Z,12.81
2022-09-28T13:47:37.805Z,12.81
2022-09-28T13:50:23.014Z,12.83
2022-09-28T13:52:50.530Z,12.83
2022-09-28T13:55:17.554Z,12.79
2022-09-28T13:58:08.266Z,12.76
2022-09-28T14:00:45.771Z,12.72
2022-09-28T14:03:15.235Z,12.68
2022-09-28T14:06:05.773Z,12.62
2022-09-28T14:08:36.408Z,12.61
2022-09-28T14:11:24.825Z,12.59
2022-09-28T14:13:58.952Z,12.55
2022-09-28T14:16:27.754Z,12.53
2022-09-28T14:18:58.004Z,12.54
2022-09-28T14:21:44.181Z,12.54
2022-09-28T14:24:14.967Z,12.53
2022-09-28T14:27:01.354Z,12.50
2022-09-28T14:29:29.885Z,12.49
2022-09-28T14:31:58.479Z,12.48
2022-09-28T14:34:37.213Z,12.44
2022-09-28T14:37:24.588Z,12.41
2022-09-28T14:40:10.831Z,12.39
2022-09-28T14:42:38.055Z,12.34
2022-09-28T14:45:07.218Z,12.28
2022-09-28T14:47:36.643Z,12.23
2022-09-28T14:50:22.413Z,12.22
2022-09-28T14:52:51.923Z,12.19
2022-09-28T14:55:24.280Z,12.17
2022-09-28T14:57:52.568Z,12.16
2022-09-28T15:00:26.194Z,12.16
2022-09-28T15:02:56.488Z,12.13
2022-09-28T15:05:24.862Z,12.06
2022-09-28T15:07:53.372Z,12.02
2022-09-28T15:10:33.938Z,11.97
2022-09-28T15:13:03.480Z,11.92
2022-09-28T15:15:35.645Z,11.85
2022-09-28T15:18:02.990Z,11.85
2022-09-28T15:20:38.361Z,11.85
2022-09-28T15:23:05.641Z,11.85
2022-09-28T15:25:33.081Z,11.83
2022-09-28T15:28:03.974Z,11.82
2022-09-28T15:30:32.417Z,11.80
2022-09-28T15:33:21.142Z,11.80
2022-09-28T15:35:51.655Z,11.80
2022-09-28T15:38:19.059Z,11.78
2022-09-28T15:40:47.884Z,11.77
2022-09-28T15:43:37.057Z,11.75
2022-09-28T15:46:26.357Z,11.72
2022-09-28T15:49:11.505Z,11.70
2022-09-28T15:51:56.060Z,11.69
2022-09-28T15:54:32.990Z,11.67
2022-09-28T15:57:05.355Z,11.66
2022-09-28T15:59:37.308Z,11.63
2022-09-28T16:02:11.290Z,11.59
2022-09-28T16:04:39.848Z,11.55
2022-09-28T16:07:10.518Z,11.54
2022-09-28T16:09:56.980Z,11.55
2022-09-28T16:12:31.995Z,11.57
2022-09-28T16:15:25.238Z,11.60
2022-09-28T16:17:54.170Z,11.62
2022-09-28T16:20:30.072Z,11.68
2022-09-28T16:22:59.722Z,11.72
2022-09-28T16:25:27.564Z,11.75
2022-09-28T16:27:55.941Z,11.74
2022-09-28T16:30:25.151Z,11.76
2022-09-28T16:32:52.744Z,11.75
2022-09-28T16:35:25.552Z,11.72
2022-09-28T16:38:05.775Z,11.72
2022-09-28T16:40:34.120Z,11.71
2022-09-28T16:43:05.841Z,11.72
2022-09-28T16:45:38.221Z,11.69
2022-09-28T16:48:06.015Z,11.65
2022-09-28T16:50:33.143Z,11.65
2022-09-28T16:53:22.289Z,11.64
2022-09-28T16:55:50.115Z,11.66
2022-09-28T16:58:25.547Z,11.69
2022-09-28T17:01:01.184Z,11.70
2022-09-28T17:03:29.444Z,11.70
2022-09-28T17:05:57.322Z,11.69
2022-09-28T17:08:27.095Z,11.68
2022-09-28T17:11:14.765Z,11.65
2022-09-28T17:13:44.397Z,11.65
2022-09-28T17:16:18.256Z,11.66
2022-09-28T17:18:51.722Z,11.66
2022-09-28T17:21:23.535Z,11.67
2022-09-28T17:23:52.721Z,11.68
2022-09-28T17:26:29.619Z,11.69
2022-09-28T17:29:01.776Z,11.69
2022-09-28T17:31:30.241Z,11.70
2022-09-28T17:33:57.695Z,11.71
2022-09-28T17:36:26.883Z,11.69
2022-09-28T17:38:56.423Z,11.67
2022-09-28T17:41:26.387Z,11.66
2022-09-28T17:43:53.959Z,11.68
2022-09-28T17:46:46.156Z,11.70
2022-09-28T17:49:17.331Z,11.68
2022-09-28T17:51:45.839Z,11.68
2022-09-28T17:54:21.474Z,11.72
2022-09-28T17:56:49.052Z,11.75
2022-09-28T17:59:20.818Z,11.76
2022-09-28T18:01:48.685Z,11.76
2022-09-28T18:04:39.809Z,11.76
2022-09-28T18:07:04.202Z,11.76
2022-09-28T18:09:31.673Z,11.77
2022-09-28T18:12:04.330Z,11.79
2022-09-28T18:14:34.222Z,11.79
2022-09-28T18:17:03.912Z,11.78
2022-09-28T18:19:32.530Z,11.79
2022-09-28T18:22:03.492Z,11.81
2022-09-28T18:24:33.363Z,11.82
2022-09-28T18:27:04.184Z,11.77
2022-09-28T18:29:33.567Z,11.74
2022-09-28T18:32:04.050Z,11.72
2022-09-28T18:34:31.757Z,11.71
2022-09-28T18:36:59.127Z,11.65
2022-09-28T18:39:26.990Z,11.64
2022-09-28T18:41:57.710Z,11.65
2022-09-28T18:44:25.011Z,11.67
2022-09-28T18:46:54.998Z,11.67
2022-09-28T18:49:26.394Z,11.62
2022-09-28T18:51:56.292Z,11.59
2022-09-28T18:54:24.659Z,11.58
2022-09-28T18:56:57.640Z,11.56
2022-09-28T18:59:26.942Z,11.59
2022-09-28T19:01:55.258Z,11.59
2022-09-28T19:04:24.017Z,11.56
2022-09-28T19:06:52.717Z,11.53
2022-09-28T19:09:31.565Z,11.56
2022-09-28T19:12:04.541Z,11.56
2022-09-28T19:14:39.102Z,11.57
2022-09-28T19:17:10.348Z,11.57
2022-09-28T19:19:39.435Z,11.55
2022-09-28T19:22:09.272Z,11.52
2022-09-28T19:24:39.220Z,11.54
2022-09-28T19:27:10.175Z,11.56
2022-09-28T19:29:39.096Z,11.58
2022-09-28T19:32:11.560Z,11.59
2022-09-28T19:34:39.635Z,11.60
2022-09-28T19:37:10.241Z,11.57
2022-09-28T19:39:37.841Z,11.53
2022-09-28T19:42:05.811Z,11.50
2022-09-28T19:44:34.798Z,11.47
2022-09-28T19:47:14.447Z,11.45
2022-09-28T19:49:42.305Z,11.43
2022-09-28T19:52:18.481Z,11.46
2022-09-28T19:54:55.957Z,11.47
2022-09-28T19:57:31.362Z,11.44
2022-09-28T20:00:06.110Z,11.44
2022-09-28T20:02:37.484Z,11.45
2022-09-28T20:05:07.260Z,11.47
2022-09-28T20:07:39.560Z,11.45
2022-09-28T20:10:13.097Z,11.44
2022-09-28T20:12:47.917Z,11.45
2022-09-28T20:15:16.795Z,11.45
2022-09-28T20:17:47.841Z,11.43
2022-09-28T20:20:15.504Z,11.42
2022-09-28T20:22:44.071Z,11.40
2022-09-28T20:25:11.582Z,11.38
2022-09-28T20:27:39.967Z,11.35
2022-09-28T20:30:07.522Z,11.32
2022-09-28T20:32:35.601Z,11.30
2022-09-28T20:35:02.687Z,11.32
2022-09-28T20:37:31.120Z,11.29
2022-09-28T20:40:01.275Z,10.88
2022-09-28T20:42:32.124Z,11.22
2022-09-28T20:44:59.257Z,11.19
2022-09-28T20:47:26.558Z,11.23
2022-09-28T20:49:54.121Z,11.21
2022-09-28T20:52:21.359Z,11.18
2022-09-28T20:54:48.909Z,11.18
2022-09-28T20:57:18.684Z,11.16
2022-09-28T20:59:48.779Z,11.16
2022-09-28T21:02:20.063Z,11.17
2022-09-28T21:04:47.600Z,11.17
2022-09-28T21:07:15.105Z,11.19
2022-09-28T21:09:42.476Z,11.19
2022-09-28T21:12:09.699Z,11.14
2022-09-28T21:14:36.953Z,11.13
2022-09-28T21:17:04.340Z,11.15
2022-09-28T21:19:32.066Z,11.15
2022-09-28T21:21:59.543Z,11.14
2022-09-28T21:24:27.228Z,11.14
2022-09-28T21:26:55.783Z,11.16
2022-09-28T21:29:22.921Z,11.16
2022-09-28T21:31:50.338Z,11.17
2022-09-28T21:34:21.660Z,11.18
2022-09-28T21:36:51.596Z,11.16
2022-09-28T21:39:19.164Z,11.11
2022-09-28T21:41:47.069Z,11.04
2022-09-28T21:44:14.475Z,10.71
2022-09-28T21:46:42.228Z,10.96
2022-09-28T21:49:10.335Z,10.96
2022-09-28T21:51:38.442Z,10.96
2022-09-28T21:54:06.297Z,10.96
2022-09-28T21:56:33.812Z,10.95
2022-09-28T21:59:01.661Z,10.92
2022-09-28T22:01:29.282Z,10.92
2022-09-28T22:03:56.974Z,10.95
2022-09-28T22:06:25.237Z,11.00
2022-09-28T22:08:52.540Z,10.95
2022-09-28T22:11:21.258Z,10.92
2022-09-28T22:13:49.588Z,10.89
2022-09-28T22:16:18.118Z,10.86
2022-09-28T22:18:45.928Z,10.86
2022-09-28T22:21:14.816Z,10.86
2022-09-28T22:23:42.336Z,10.86
2022-09-28T22:26:20.397Z,10.86
2022-09-28T22:28:49.661Z,10.89
2022-09-28T22:31:17.974Z,10.92
2022-09-28T22:33:45.612Z,10.90
2022-09-28T22:36:14.372Z,10.91
2022-09-28T22:38:41.540Z,10.90
2022-09-28T22:41:09.455Z,10.87
2022-09-28T22:43:36.917Z,10.83
2022-09-28T22:46:06.475Z,10.83
2022-09-28T22:48:35.018Z,10.81
2022-09-28T22:51:02.622Z,10.77
2022-09-28T22:53:30.290Z,10.78
2022-09-28T22:55:58.386Z,10.82
2022-09-28T22:58:25.857Z,10.85
2022-09-28T23:00:53.246Z,10.87
2022-09-28T23:03:20.630Z,10.88
2022-09-28T23:05:54.764Z,10.84
2022-09-28T23:08:22.218Z,10.79
2022-09-28T23:10:49.598Z,10.76
2022-09-28T23:13:17.060Z,10.73
2022-09-28T23:15:56.736Z,10.77
2022-09-28T23:18:25.224Z,10.76
2022-09-28T23:20:53.207Z,10.77
2022-09-28T23:23:20.581Z,10.79
2022-09-28T23:25:48.262Z,10.80
2022-09-28T23:28:15.607Z,10.81
2022-09-28T23:30:42.930Z,10.80
2022-09-28T23:33:16.828Z,10.76
2022-09-28T23:35:44.337Z,10.72
2022-09-28T23:38:13.987Z,10.68
2022-09-28T23:40:41.893Z,10.66
2022-09-28T23:43:09.804Z,10.65
2022-09-28T23:45:36.943Z,10.65
2022-09-28T23:48:04.207Z,10.65
2022-09-28T23:50:31.375Z,10.62
2022-09-28T23:52:58.859Z,10.63
2022-09-28T23:55:26.170Z,10.65
2022-09-28T23:57:55.878Z,10.65
